Time;durP1;ratioP1;P1;durP2;ratioP2;P2;SDS_P1;SDS_P2;PMS_P1;PMS_P2;Temp;Humidity;BMP_temperature;BMP_pressure;BME280_temperature;BME280_humidity;BME280_pressure;Samples;Min_cycle;Max_cycle;Signal;HPM_P1;HPM_P2
2022/01/17 00:01:35;;;;;;;;;;;14.80;48.30;;;;;;5128283;27;19962;-64
2022/01/17 00:04:00;;;;;;;;;;;14.70;48.30;;;;;;5095057;28;19909;-63
2022/01/17 00:06:26;;;;;;;;;;;14.70;48.40;;;;;;5095156;28;19959;-63
2022/01/17 00:08:51;;;;;;;;;;;14.70;48.30;;;;;;5127467;27;19916;-63
2022/01/17 00:11:17;;;;;;;;;;;14.70;48.40;;;;;;5110820;28;19908;-63
2022/01/17 00:13:43;;;;;;;;;;;14.70;48.30;;;;;;5094802;28;19908;-63
2022/01/17 00:16:12;;;;;;;;;;;14.70;48.30;;;;;;5094127;28;19914;-65
2022/01/17 00:21:06;;;;;;;;;;;14.70;48.20;;;;;;5092838;28;19966;-64
2022/01/17 00:23:32;;;;;;;;;;;14.70;48.20;;;;;;5094373;28;19983;-64
2022/01/17 00:25:57;;;;;;;;;;;14.60;48.20;;;;;;5093645;28;19908;-64
2022/01/17 00:28:23;;;;;;;;;;;14.70;48.30;;;;;;5094626;28;20284;-64
2022/01/17 00:30:48;;;;;;;;;;;14.60;48.20;;;;;;5094644;28;19908;-64
2022/01/17 00:33:14;;;;;;;;;;;14.70;48.30;;;;;;5094710;28;20268;-64
2022/01/17 00:35:39;;;;;;;;;;;14.70;48.30;;;;;;5093330;28;19920;-64
2022/01/17 00:38:05;;;;;;;;;;;14.70;48.20;;;;;;5127279;27;19912;-64
2022/01/17 00:40:30;;;;;;;;;;;14.70;48.30;;;;;;5092819;28;19912;-64
2022/01/17 00:42:56;;;;;;;;;;;14.70;48.30;;;;;;5127288;27;19908;-64
2022/01/17 00:45:27;;;;;;;;;;;14.60;48.20;;;;;;5092924;28;19911;-64
2022/01/17 00:47:55;;;;;;;;;;;14.60;48.20;;;;;;5110871;27;19923;-64
2022/01/17 00:50:24;;;;;;;;;;;14.60;48.20;;;;;;5094387;28;19937;-64
2022/01/17 00:52:49;;;;;;;;;;;14.60;48.10;;;;;;5093100;28;19908;-64
2022/01/17 00:55:15;;;;;;;;;;;14.60;48.00;;;;;;5093639;28;19956;-63
2022/01/17 00:57:40;;;;;;;;;;;14.60;48.20;;;;;;5127050;27;20410;-63
2022/01/17 01:00:06;;;;;;;;;;;14.60;48.20;;;;;;5094093;28;20360;-63
2022/01/17 01:02:31;;;;;;;;;;;14.60;48.20;;;;;;5094200;28;20141;-63
2022/01/17 01:04:57;;;;;;;;;;;14.60;48.30;;;;;;5093817;28;19953;-64
2022/01/17 01:07:22;;;;;;;;;;;14.60;48.30;;;;;;5094024;28;19921;-64
2022/01/17 01:10:04;;;;;;;;;;;14.50;48.20;;;;;;5092145;28;19912;-64
2022/01/17 01:12:29;;;;;;;;;;;14.50;48.30;;;;;;5093907;28;19919;-63
2022/01/17 01:14:55;;;;;;;;;;;14.50;48.30;;;;;;5075576;28;19912;-63
2022/01/17 01:18:13;;;;;;;;;;;14.50;48.40;;;;;;5093605;28;19939;-63
2022/01/17 01:20:33;;;;;;;;;;;14.50;49.00;;;;;;5088426;28;19920;-63
2022/01/17 01:28:23;;;;;;;;;;;14.50;48.50;;;;;;5093477;28;19920;-64
2022/01/17 01:30:54;;;;;;;;;;;14.40;48.40;;;;;;5092224;28;20276;-64
2022/01/17 01:33:30;;;;;;;;;;;14.40;48.30;;;;;;5110296;27;19912;-63
2022/01/17 01:36:01;;;;;;;;;;;14.40;48.40;;;;;;5092244;28;19918;-63
2022/01/17 01:38:27;;;;;;;;;;;14.40;48.30;;;;;;5100032;28;20269;-64
2022/01/17 01:40:52;;;;;;;;;;;14.50;48.40;;;;;;5091999;28;19919;-64
2022/01/17 01:43:18;;;;;;;;;;;14.40;48.40;;;;;;5093234;28;20365;-64
2022/01/17 01:45:47;;;;;;;;;;;14.40;48.50;;;;;;5093151;28;20384;-64
2022/01/17 01:48:13;;;;;;;;;;;14.40;48.60;;;;;;5091964;28;19922;-64
2022/01/17 01:50:38;;;;;;;;;;;14.40;48.60;;;;;;5108717;28;20288;-64
2022/01/17 01:53:04;;;;;;;;;;;14.40;48.60;;;;;;5091863;28;20341;-65
2022/01/17 01:55:30;;;;;;;;;;;14.30;48.60;;;;;;5092652;28;19912;-64
2022/01/17 01:57:56;;;;;;;;;;;14.30;48.60;;;;;;5125894;27;19914;-64
2022/01/17 02:00:21;;;;;;;;;;;14.30;48.70;;;;;;5091557;28;19957;-64
2022/01/17 02:02:47;;;;;;;;;;;14.30;48.60;;;;;;5092743;28;19908;-64
2022/01/17 02:05:12;;;;;;;;;;;14.30;48.60;;;;;;5092837;28;19962;-64
2022/01/17 02:07:39;;;;;;;;;;;14.30;48.40;;;;;;5092791;28;19913;-64
2022/01/17 02:10:04;;;;;;;;;;;14.30;48.50;;;;;;5091239;28;20379;-64
2022/01/17 02:12:30;;;;;;;;;;;14.30;48.40;;;;;;5091561;28;20010;-64
2022/01/17 02:14:56;;;;;;;;;;;14.30;48.50;;;;;;5091314;28;20002;-64
2022/01/17 02:17:23;;;;;;;;;;;14.30;48.40;;;;;;5091390;28;19915;-64
2022/01/17 02:19:52;;;;;;;;;;;14.30;48.40;;;;;;5092687;28;20391;-64
2022/01/17 02:22:18;;;;;;;;;;;14.40;48.90;;;;;;5092685;28;19953;-64
2022/01/17 02:24:44;;;;;;;;;;;14.40;48.20;;;;;;5092150;28;19912;-64
2022/01/17 02:27:09;;;;;;;;;;;14.40;48.20;;;;;;5092422;28;19949;-64
2022/01/17 02:29:35;;;;;;;;;;;14.40;48.10;;;;;;5092423;28;19908;-64
2022/01/17 02:32:00;;;;;;;;;;;14.50;47.90;;;;;;5125184;27;19908;-64
2022/01/17 02:34:25;;;;;;;;;;;14.60;47.70;;;;;;5091293;28;19930;-64
2022/01/17 02:36:51;;;;;;;;;;;14.70;48.20;;;;;;5091202;28;20352;-63
2022/01/17 02:39:16;;;;;;;;;;;14.80;47.50;;;;;;5090658;28;19916;-63
2022/01/17 02:41:49;;;;;;;;;;;14.80;47.30;;;;;;5092483;28;19919;-63
2022/01/17 02:44:14;;;;;;;;;;;14.80;47.20;;;;;;5124561;27;19912;-63
2022/01/17 02:46:39;;;;;;;;;;;14.90;47.00;;;;;;5125234;28;19916;-63
2022/01/17 02:49:05;;;;;;;;;;;15.00;46.90;;;;;;5092074;28;19912;-63
2022/01/17 02:51:31;;;;;;;;;;;15.10;46.80;;;;;;5091105;28;19960;-63
2022/01/17 02:53:56;;;;;;;;;;;15.10;46.60;;;;;;5091922;28;19914;-64
2022/01/17 02:56:22;;;;;;;;;;;15.20;46.50;;;;;;5092334;28;19919;-64
2022/01/17 02:58:48;;;;;;;;;;;15.20;46.40;;;;;;5074052;28;19908;-64
2022/01/17 03:01:17;;;;;;;;;;;15.30;46.40;;;;;;5091030;28;19915;-64
2022/01/17 03:03:43;;;;;;;;;;;15.30;46.30;;;;;;5073874;28;19950;-64
2022/01/17 03:06:09;;;;;;;;;;;15.30;46.20;;;;;;5091130;28;20363;-64
2022/01/17 03:08:35;;;;;;;;;;;15.30;46.00;;;;;;5073545;28;19920;-64
2022/01/17 03:11:01;;;;;;;;;;;15.30;46.10;;;;;;5107760;28;19908;-64
2022/01/17 03:13:29;;;;;;;;;;;15.30;46.10;;;;;;5090762;28;20372;-64
2022/01/17 03:15:57;;;;;;;;;;;15.30;46.20;;;;;;5090952;28;19914;-64
2022/01/17 03:18:27;;;;;;;;;;;15.30;46.30;;;;;;5074185;28;19930;-64
2022/01/17 03:20:53;;;;;;;;;;;15.20;46.20;;;;;;5090872;28;19942;-64
2022/01/17 03:23:18;;;;;;;;;;;15.20;46.30;;;;;;5124865;28;19912;-64
2022/01/17 03:25:44;;;;;;;;;;;15.20;46.40;;;;;;5091585;28;20284;-65
2022/01/17 03:28:09;;;;;;;;;;;15.20;46.50;;;;;;5090662;28;19927;-64
2022/01/17 03:30:35;;;;;;;;;;;15.20;46.50;;;;;;5091934;28;20322;-64
2022/01/17 03:33:01;;;;;;;;;;;15.10;46.50;;;;;;5091951;28;19912;-64
2022/01/17 03:35:26;;;;;;;;;;;15.10;46.60;;;;;;5073696;28;20348;-64
2022/01/17 03:37:52;;;;;;;;;;;15.10;46.70;;;;;;5090485;28;20008;-64
2022/01/17 03:40:17;;;;;;;;;;;15.10;46.70;;;;;;5091381;28;19954;-64
2022/01/17 03:42:43;;;;;;;;;;;15.00;46.80;;;;;;5091973;28;19908;-64
2022/01/17 03:45:09;;;;;;;;;;;15.00;46.80;;;;;;5090484;28;19935;-64
2022/01/17 03:47:35;;;;;;;;;;;15.00;46.90;;;;;;5091892;28;19912;-64
2022/01/17 03:50:00;;;;;;;;;;;15.00;46.90;;;;;;5073517;28;19958;-64
2022/01/17 03:52:26;;;;;;;;;;;15.00;47.00;;;;;;5091798;28;19961;-64
2022/01/17 03:54:51;;;;;;;;;;;15.00;47.00;;;;;;5090209;28;20261;-64
2022/01/17 03:57:17;;;;;;;;;;;15.00;47.00;;;;;;5094127;28;20258;-64
2022/01/17 03:59:42;;;;;;;;;;;15.00;47.00;;;;;;5093967;28;19934;-64
2022/01/17 04:02:08;;;;;;;;;;;15.00;47.00;;;;;;5110970;28;19908;-64
2022/01/17 04:04:33;;;;;;;;;;;15.00;46.90;;;;;;5095152;28;19918;-64
2022/01/17 04:06:58;;;;;;;;;;;15.00;46.90;;;;;;5095462;28;20003;-64
2022/01/17 04:09:24;;;;;;;;;;;15.00;46.90;;;;;;5127519;27;19924;-64
2022/01/17 04:11:49;;;;;;;;;;;15.00;46.80;;;;;;5095213;28;19957;-64
2022/01/17 04:14:16;;;;;;;;;;;15.00;46.80;;;;;;5094893;28;19915;-64
2022/01/17 04:16:42;;;;;;;;;;;15.00;46.90;;;;;;5095103;28;19915;-64
2022/01/17 04:19:09;;;;;;;;;;;15.00;46.90;;;;;;5093305;28;20284;-63
2022/01/17 04:21:36;;;;;;;;;;;14.90;46.90;;;;;;5094912;28;19958;-63
2022/01/17 04:24:01;;;;;;;;;;;14.90;46.90;;;;;;5094345;28;19909;-63
2022/01/17 04:26:26;;;;;;;;;;;14.90;47.00;;;;;;5093329;28;19916;-63
2022/01/17 04:28:52;;;;;;;;;;;14.90;47.00;;;;;;5094457;28;20447;-63
2022/01/17 04:31:17;;;;;;;;;;;15.00;47.00;;;;;;5093371;28;20319;-63
2022/01/17 04:33:43;;;;;;;;;;;15.00;46.90;;;;;;5093241;28;20284;-63
2022/01/17 04:36:09;;;;;;;;;;;15.00;46.90;;;;;;5093252;28;19924;-63
2022/01/17 04:38:34;;;;;;;;;;;15.00;46.90;;;;;;5092602;28;19951;-63
2022/01/17 04:41:03;;;;;;;;;;;15.10;46.90;;;;;;5093108;28;20416;-63
2022/01/17 04:46:04;;;;;;;;;;;15.10;46.80;;;;;;5101049;28;19914;-63
2022/01/17 04:48:30;;;;;;;;;;;15.10;46.80;;;;;;5092749;28;19999;-63
2022/01/17 04:50:55;;;;;;;;;;;15.10;46.80;;;;;;5092668;28;19908;-63
2022/01/17 04:53:21;;;;;;;;;;;15.10;46.80;;;;;;5093831;28;19962;-63
2022/01/17 04:55:47;;;;;;;;;;;15.10;46.80;;;;;;5093413;28;19914;-63
2022/01/17 04:58:13;;;;;;;;;;;15.10;46.80;;;;;;5093787;28;19912;-63
2022/01/17 05:00:45;;;;;;;;;;;15.10;46.80;;;;;;5092488;28;19915;-63
2022/01/17 05:03:11;;;;;;;;;;;15.10;47.40;;;;;;5092946;28;19943;-63
2022/01/17 05:05:36;;;;;;;;;;;15.10;46.80;;;;;;5092368;28;20382;-63
2022/01/17 05:08:02;;;;;;;;;;;15.10;46.80;;;;;;5126399;27;19916;-64
2022/01/17 05:10:27;;;;;;;;;;;15.10;46.80;;;;;;5093578;28;20014;-64
2022/01/17 05:12:53;;;;;;;;;;;15.10;46.80;;;;;;5109383;28;19909;-63
2022/01/17 05:15:33;;;;;;;;;;;15.10;46.90;;;;;;5093599;28;19921;-63
2022/01/17 05:18:23;;;;;;;;;;;15.10;46.90;;;;;;5093447;28;19927;-63
2022/01/17 05:20:46;;;;;;;;;;;15.10;46.90;;;;;;5093426;28;19915;-63
2022/01/17 05:23:12;;;;;;;;;;;15.10;46.90;;;;;;5093554;28;19915;-63
2022/01/17 05:25:37;;;;;;;;;;;15.10;46.90;;;;;;5091583;28;19908;-64
2022/01/17 05:28:03;;;;;;;;;;;15.10;47.00;;;;;;5083000;28;20410;-64
2022/01/17 05:30:28;;;;;;;;;;;15.10;47.00;;;;;;5071775;28;20337;-64
2022/01/17 05:32:54;;;;;;;;;;;15.10;47.00;;;;;;5071755;28;20365;-64
2022/01/17 05:35:19;;;;;;;;;;;15.10;47.00;;;;;;5071642;28;20361;-64
2022/01/17 05:37:45;;;;;;;;;;;15.10;47.00;;;;;;5071751;28;20376;-64
2022/01/17 05:40:11;;;;;;;;;;;15.10;47.10;;;;;;5071232;28;19909;-64
2022/01/17 05:42:37;;;;;;;;;;;15.00;47.10;;;;;;5071555;28;19959;-64
2022/01/17 05:45:03;;;;;;;;;;;15.00;47.10;;;;;;5072751;28;19964;-64
2022/01/17 05:47:28;;;;;;;;;;;15.00;47.10;;;;;;5054901;28;19958;-64
2022/01/17 05:49:54;;;;;;;;;;;15.10;47.10;;;;;;5071581;28;19923;-64
2022/01/17 05:52:19;;;;;;;;;;;15.00;47.10;;;;;;5072679;28;19913;-64
2022/01/17 05:54:44;;;;;;;;;;;15.00;47.20;;;;;;5071210;28;19916;-64
2022/01/17 05:57:10;;;;;;;;;;;15.10;47.20;;;;;;5080114;28;19915;-64
2022/01/17 05:59:36;;;;;;;;;;;15.00;47.10;;;;;;5092645;28;19950;-64
2022/01/17 06:02:01;;;;;;;;;;;15.10;47.20;;;;;;5108706;28;19909;-64
2022/01/17 06:04:27;;;;;;;;;;;15.10;47.30;;;;;;5125523;27;19915;-63
2022/01/17 06:06:52;;;;;;;;;;;15.10;47.30;;;;;;5092784;28;19912;-63
2022/01/17 06:09:17;;;;;;;;;;;15.10;47.20;;;;;;5092353;28;19923;-63
2022/01/17 06:11:43;;;;;;;;;;;15.10;47.30;;;;;;5092812;28;19908;-63
2022/01/17 06:14:09;;;;;;;;;;;15.10;47.90;;;;;;5091369;28;19959;-63
2022/01/17 06:16:36;;;;;;;;;;;15.10;47.40;;;;;;5092597;28;19958;-63
2022/01/17 06:19:02;;;;;;;;;;;15.10;47.40;;;;;;5091681;28;20338;-63
2022/01/17 06:21:28;;;;;;;;;;;15.10;47.40;;;;;;5091414;28;19909;-63
2022/01/17 06:23:53;;;;;;;;;;;15.00;47.40;;;;;;5090871;28;19915;-63
2022/01/17 06:26:19;;;;;;;;;;;15.10;47.40;;;;;;5092530;28;19965;-63
2022/01/17 06:28:45;;;;;;;;;;;15.10;47.40;;;;;;5070856;28;19920;-63
2022/01/17 06:31:10;;;;;;;;;;;15.10;47.50;;;;;;5072257;28;19909;-63
2022/01/17 06:33:36;;;;;;;;;;;15.10;47.50;;;;;;5070972;28;20341;-63
2022/01/17 06:36:01;;;;;;;;;;;15.10;47.50;;;;;;5070861;28;20283;-63
2022/01/17 06:38:26;;;;;;;;;;;15.10;47.50;;;;;;5070662;28;19916;-63
2022/01/17 06:40:52;;;;;;;;;;;15.10;47.50;;;;;;5071018;28;19913;-63
2022/01/17 06:43:17;;;;;;;;;;;15.10;47.60;;;;;;5072121;28;19999;-63
2022/01/17 06:45:45;;;;;;;;;;;15.10;47.50;;;;;;5072031;28;19909;-63
2022/01/17 06:48:10;;;;;;;;;;;15.10;47.50;;;;;;5070741;28;19980;-63
2022/01/17 06:50:36;;;;;;;;;;;15.10;47.50;;;;;;5070724;28;20372;-63
2022/01/17 06:53:01;;;;;;;;;;;15.10;47.60;;;;;;5070852;28;20273;-63
2022/01/17 06:55:27;;;;;;;;;;;15.10;47.60;;;;;;5070307;28;19916;-64
2022/01/17 06:57:52;;;;;;;;;;;15.10;47.60;;;;;;5067649;28;19912;-64
2022/01/17 07:00:18;;;;;;;;;;;15.10;47.60;;;;;;5090754;28;19908;-64
2022/01/17 07:02:43;;;;;;;;;;;15.10;47.60;;;;;;5090963;28;19958;-64
2022/01/17 07:05:09;;;;;;;;;;;15.10;47.70;;;;;;5090726;28;19916;-64
2022/01/17 07:07:34;;;;;;;;;;;15.10;47.70;;;;;;5091992;28;19953;-64
2022/01/17 07:09:59;;;;;;;;;;;15.10;47.70;;;;;;5091507;28;20002;-64
2022/01/17 07:12:25;;;;;;;;;;;15.10;47.70;;;;;;5092129;28;19951;-64
2022/01/17 07:14:50;;;;;;;;;;;15.10;47.70;;;;;;5091938;28;19908;-64
2022/01/17 07:17:16;;;;;;;;;;;15.10;47.80;;;;;;5091735;28;19931;-64
2022/01/17 07:19:41;;;;;;;;;;;15.10;47.90;;;;;;5091912;28;19946;-64
2022/01/17 07:22:07;;;;;;;;;;;15.10;47.90;;;;;;5091755;28;19915;-64
2022/01/17 07:24:33;;;;;;;;;;;15.10;48.00;;;;;;5090496;28;19912;-64
2022/01/17 07:26:58;;;;;;;;;;;15.10;47.90;;;;;;5090707;28;19973;-64
2022/01/17 07:29:24;;;;;;;;;;;15.10;47.90;;;;;;5091313;28;19923;-64
2022/01/17 07:31:49;;;;;;;;;;;15.10;48.00;;;;;;5095644;28;19912;-64
2022/01/17 07:34:15;;;;;;;;;;;15.10;48.10;;;;;;5128145;27;19908;-64
2022/01/17 07:36:40;;;;;;;;;;;15.10;48.10;;;;;;5094293;28;19908;-64
2022/01/17 07:39:06;;;;;;;;;;;15.10;48.10;;;;;;5093532;28;19915;-64
2022/01/17 07:41:31;;;;;;;;;;;15.10;48.10;;;;;;5095455;28;20356;-64
2022/01/17 07:43:57;;;;;;;;;;;15.10;48.10;;;;;;5077146;28;19959;-64
2022/01/17 07:46:25;;;;;;;;;;;15.10;48.10;;;;;;5093988;28;19912;-64
2022/01/17 07:49:10;;;;;;;;;;;15.10;48.20;;;;;;5095434;28;19923;-64
2022/01/17 07:51:40;;;;;;;;;;;15.10;48.20;;;;;;5095514;28;20368;-64
2022/01/17 07:54:05;;;;;;;;;;;15.10;48.20;;;;;;5093513;28;19959;-64
2022/01/17 07:56:32;;;;;;;;;;;15.10;48.30;;;;;;5093874;28;19908;-64
2022/01/17 07:58:57;;;;;;;;;;;15.10;48.30;;;;;;5095080;28;19908;-64
2022/01/17 08:01:23;;;;;;;;;;;15.10;48.30;;;;;;5093444;28;19961;-63
2022/01/17 08:03:48;;;;;;;;;;;15.10;48.30;;;;;;5093677;28;20545;-63
2022/01/17 08:06:14;;;;;;;;;;;15.10;48.40;;;;;;5095330;28;19919;-63
2022/01/17 08:08:39;;;;;;;;;;;15.10;48.40;;;;;;5094336;28;19927;-64
2022/01/17 08:11:05;;;;;;;;;;;15.10;48.40;;;;;;5095018;28;19908;-64
2022/01/17 08:13:30;;;;;;;;;;;15.10;48.40;;;;;;5093442;28;19951;-64
2022/01/17 08:15:56;;;;;;;;;;;15.10;48.50;;;;;;5094750;28;19915;-64
2022/01/17 08:18:21;;;;;;;;;;;15.10;48.50;;;;;;5093321;28;20027;-64
2022/01/17 08:20:47;;;;;;;;;;;15.10;48.50;;;;;;5093384;28;19909;-63
2022/01/17 08:23:12;;;;;;;;;;;15.10;48.50;;;;;;5093315;28;20350;-63
2022/01/17 08:25:38;;;;;;;;;;;15.10;48.60;;;;;;5109919;28;19914;-63
2022/01/17 08:28:03;;;;;;;;;;;15.10;48.70;;;;;;5094480;28;19916;-63
2022/01/17 08:30:30;;;;;;;;;;;15.10;48.60;;;;;;5093335;28;19912;-63
2022/01/17 08:32:56;;;;;;;;;;;15.10;48.60;;;;;;5076564;28;19915;-64
2022/01/17 08:35:21;;;;;;;;;;;15.10;49.30;;;;;;5094747;28;19908;-64
2022/01/17 08:37:47;;;;;;;;;;;15.10;48.80;;;;;;5094378;28;20368;-63
2022/01/17 08:40:12;;;;;;;;;;;15.20;48.90;;;;;;5092618;28;19919;-63
2022/01/17 08:42:38;;;;;;;;;;;15.10;48.90;;;;;;5093862;28;19908;-64
2022/01/17 08:45:10;;;;;;;;;;;15.10;48.90;;;;;;5094216;28;20005;-64
2022/01/17 08:47:36;;;;;;;;;;;15.10;49.00;;;;;;5092860;28;19912;-64
2022/01/17 08:50:02;;;;;;;;;;;15.10;48.90;;;;;;5093039;28;20029;-64
2022/01/17 08:52:27;;;;;;;;;;;15.10;48.90;;;;;;5094213;28;19916;-64
2022/01/17 08:54:53;;;;;;;;;;;15.10;49.00;;;;;;5093923;28;19912;-64
2022/01/17 08:57:19;;;;;;;;;;;15.10;49.00;;;;;;5077624;28;19912;-64
2022/01/17 08:59:45;;;;;;;;;;;15.10;49.00;;;;;;5072491;28;20326;-64
2022/01/17 09:02:10;;;;;;;;;;;15.10;49.00;;;;;;5073806;28;19908;-63
2022/01/17 09:04:40;;;;;;;;;;;15.10;49.10;;;;;;5073740;28;19935;-63
2022/01/17 09:07:09;;;;;;;;;;;15.10;49.10;;;;;;5072457;28;19909;-63
2022/01/17 09:09:35;;;;;;;;;;;15.10;49.10;;;;;;5073070;28;19920;-64
2022/01/17 09:12:00;;;;;;;;;;;15.10;49.20;;;;;;5072274;28;19909;-64
2022/01/17 09:14:27;;;;;;;;;;;15.10;49.10;;;;;;5073496;28;19913;-64
2022/01/17 09:16:53;;;;;;;;;;;15.10;49.10;;;;;;5073567;28;20304;-64
2022/01/17 09:19:18;;;;;;;;;;;15.10;49.10;;;;;;5073287;28;19932;-64
2022/01/17 09:21:44;;;;;;;;;;;15.10;49.20;;;;;;5073417;28;20354;-63
2022/01/17 09:24:09;;;;;;;;;;;15.10;49.30;;;;;;5072707;28;19939;-63
2022/01/17 09:26:34;;;;;;;;;;;15.10;49.40;;;;;;5083869;28;19931;-63
2022/01/17 09:29:00;;;;;;;;;;;15.10;49.40;;;;;;5092141;28;19912;-63
2022/01/17 09:31:25;;;;;;;;;;;15.10;49.40;;;;;;5093512;28;20009;-63
2022/01/17 09:33:51;;;;;;;;;;;15.10;49.40;;;;;;5092272;28;19927;-63
2022/01/17 09:36:16;;;;;;;;;;;15.10;49.50;;;;;;5093426;28;19908;-63
2022/01/17 09:38:42;;;;;;;;;;;15.10;49.50;;;;;;5092728;28;19908;-63
2022/01/17 09:41:07;;;;;;;;;;;15.00;49.40;;;;;;5093327;28;19915;-65
2022/01/17 09:43:34;;;;;;;;;;;15.00;49.50;;;;;;5125958;27;19912;-64
2022/01/17 09:45:59;;;;;;;;;;;15.00;49.50;;;;;;5092043;28;19916;-64
2022/01/17 09:48:34;;;;;;;;;;;15.10;49.50;;;;;;5092922;28;19919;-64
2022/01/17 09:51:15;;;;;;;;;;;15.10;49.40;;;;;;5125878;27;19912;-64
2022/01/17 09:53:41;;;;;;;;;;;15.10;49.50;;;;;;5097811;28;19908;-64
2022/01/17 09:56:07;;;;;;;;;;;15.10;49.50;;;;;;5091330;28;20379;-64
2022/01/17 09:58:34;;;;;;;;;;;15.00;49.50;;;;;;5092522;28;19908;-64
2022/01/17 10:01:00;;;;;;;;;;;15.00;49.50;;;;;;5091443;28;19982;-64
2022/01/17 10:03:26;;;;;;;;;;;15.00;49.50;;;;;;5092557;28;19947;-64
2022/01/17 10:05:51;;;;;;;;;;;15.00;49.50;;;;;;5125358;27;19914;-64
2022/01/17 10:08:16;;;;;;;;;;;15.00;49.50;;;;;;5092544;28;20387;-64
2022/01/17 10:10:51;;;;;;;;;;;15.00;49.50;;;;;;5092264;28;19915;-63
2022/01/17 10:13:23;;;;;;;;;;;15.00;49.50;;;;;;5091454;28;19912;-64
2022/01/17 10:15:55;;;;;;;;;;;15.10;49.40;;;;;;5099405;28;19916;-64
2022/01/17 10:18:24;;;;;;;;;;;15.10;49.40;;;;;;5074309;28;19920;-64
2022/01/17 10:20:55;;;;;;;;;;;15.10;49.30;;;;;;5092674;28;20387;-64
2022/01/17 10:23:40;;;;;;;;;;;15.10;49.30;;;;;;5098192;28;19945;-64
2022/01/17 10:26:30;;;;;;;;;;;15.10;49.30;;;;;;5092693;28;19999;-63
2022/01/17 10:29:16;;;;;;;;;;;15.10;49.30;;;;;;5092188;28;19912;-64
2022/01/17 10:37:11;;;;;;;;;;;15.10;49.10;;;;;;5091302;28;19916;-64
2022/01/17 10:39:37;;;;;;;;;;;15.10;49.10;;;;;;5090723;28;19999;-64
2022/01/17 10:42:42;;;;;;;;;;;15.10;49.10;;;;;;5074193;28;19919;-64
2022/01/17 10:45:12;;;;;;;;;;;15.10;49.20;;;;;;5049549;28;19913;-64
2022/01/17 10:47:40;;;;;;;;;;;15.10;49.20;;;;;;5049748;28;19909;-64
2022/01/17 10:50:10;;;;;;;;;;;15.10;49.20;;;;;;5093883;28;19951;-64
2022/01/17 10:52:38;;;;;;;;;;;15.10;49.20;;;;;;5074202;28;19908;-64
2022/01/17 10:55:14;;;;;;;;;;;15.00;49.10;;;;;;5090339;28;19912;-64
2022/01/17 10:57:41;;;;;;;;;;;15.00;49.20;;;;;;5090935;28;19918;-64
2022/01/17 11:00:11;;;;;;;;;;;15.00;49.10;;;;;;5090615;28;19908;-64
2022/01/17 11:02:37;;;;;;;;;;;15.10;49.10;;;;;;5090909;28;20383;-64
2022/01/17 11:05:03;;;;;;;;;;;15.00;49.00;;;;;;5092822;28;19916;-64
2022/01/17 11:07:29;;;;;;;;;;;15.10;49.10;;;;;;5077920;28;19952;-64
2022/01/17 11:09:57;;;;;;;;;;;15.10;49.00;;;;;;5094254;28;20379;-64
2022/01/17 11:12:26;;;;;;;;;;;15.10;48.80;;;;;;5094779;28;20356;-64
2022/01/17 11:14:52;;;;;;;;;;;15.10;48.80;;;;;;5095874;28;19909;-64
2022/01/17 11:17:21;;;;;;;;;;;15.10;48.80;;;;;;5095955;28;19931;-64
2022/01/17 11:20:04;;;;;;;;;;;15.10;48.80;;;;;;5094700;28;20002;-64
2022/01/17 11:22:30;;;;;;;;;;;15.10;48.70;;;;;;5096040;28;19912;-64
2022/01/17 11:24:56;;;;;;;;;;;15.10;48.70;;;;;;5095394;28;19908;-64
2022/01/17 11:27:21;;;;;;;;;;;15.10;48.60;;;;;;5094583;28;19957;-64
2022/01/17 11:29:48;;;;;;;;;;;15.10;48.60;;;;;;5095618;28;19908;-64
2022/01/17 11:32:13;;;;;;;;;;;15.10;48.60;;;;;;5094497;28;19961;-64
2022/01/17 11:34:39;;;;;;;;;;;15.10;48.60;;;;;;5095556;28;19915;-64
2022/01/17 11:37:05;;;;;;;;;;;15.10;48.60;;;;;;5094293;28;19915;-65
2022/01/17 11:39:30;;;;;;;;;;;15.10;48.50;;;;;;5093871;28;20361;-65
2022/01/17 11:41:56;;;;;;;;;;;15.10;48.50;;;;;;5094257;28;19916;-64
2022/01/17 11:44:31;;;;;;;;;;;15.10;48.50;;;;;;5095486;28;19908;-64
2022/01/17 11:46:59;;;;;;;;;;;15.10;48.40;;;;;;5094021;28;19961;-64
2022/01/17 11:49:32;;;;;;;;;;;15.10;48.40;;;;;;5094204;28;19949;-64
2022/01/17 11:51:58;;;;;;;;;;;15.10;48.40;;;;;;5101033;28;19915;-64
2022/01/17 11:54:24;;;;;;;;;;;15.10;48.30;;;;;;5094915;28;19918;-65
2022/01/17 11:56:56;;;;;;;;;;;15.10;48.30;;;;;;5094996;28;19912;-65
2022/01/17 11:59:42;;;;;;;;;;;15.20;48.30;;;;;;5093939;28;19991;-64
2022/01/17 12:02:10;;;;;;;;;;;15.20;48.30;;;;;;5076978;28;20329;-64
2022/01/17 12:04:36;;;;;;;;;;;15.20;48.20;;;;;;5094993;28;20380;-64
2022/01/17 12:07:01;;;;;;;;;;;15.20;48.20;;;;;;5093796;28;19908;-64
2022/01/17 12:09:27;;;;;;;;;;;15.20;48.20;;;;;;5094253;28;19965;-64
2022/01/17 12:11:56;;;;;;;;;;;15.20;48.00;;;;;;5093715;28;19908;-64
2022/01/17 12:14:21;;;;;;;;;;;15.20;48.00;;;;;;5094882;28;19909;-64
2022/01/17 12:16:47;;;;;;;;;;;15.20;48.00;;;;;;5092411;28;19915;-64
2022/01/17 12:19:13;;;;;;;;;;;15.20;48.00;;;;;;5093261;28;19927;-64
2022/01/17 12:21:40;;;;;;;;;;;15.20;48.00;;;;;;5094972;28;19912;-64
2022/01/17 12:24:15;;;;;;;;;;;15.20;47.90;;;;;;5094397;28;19908;-64
2022/01/17 12:26:44;;;;;;;;;;;15.20;47.90;;;;;;5094641;28;19908;-64
2022/01/17 12:29:09;;;;;;;;;;;15.20;47.90;;;;;;5093282;28;20364;-64
2022/01/17 12:31:45;;;;;;;;;;;15.20;47.90;;;;;;5127456;27;19938;-64
2022/01/17 12:34:23;;;;;;;;;;;15.20;47.90;;;;;;5093150;28;19947;-64
2022/01/17 12:36:50;;;;;;;;;;;15.20;48.00;;;;;;5093621;28;20452;-64
2022/01/17 12:39:19;;;;;;;;;;;15.20;48.00;;;;;;5092703;28;19909;-64
2022/01/17 12:41:45;;;;;;;;;;;15.20;47.90;;;;;;5093242;28;19999;-64
2022/01/17 12:44:22;;;;;;;;;;;15.20;47.90;;;;;;5076177;28;19908;-64
2022/01/17 12:46:48;;;;;;;;;;;15.20;47.90;;;;;;5092958;28;19908;-64
2022/01/17 12:49:14;;;;;;;;;;;15.20;47.90;;;;;;5092897;28;19938;-64
2022/01/17 12:51:40;;;;;;;;;;;15.20;47.90;;;;;;5093044;28;19912;-64
2022/01/17 12:54:12;;;;;;;;;;;15.20;47.80;;;;;;5092123;28;20276;-64
2022/01/17 12:56:45;;;;;;;;;;;15.20;47.80;;;;;;5094033;28;19908;-64
2022/01/17 12:59:10;;;;;;;;;;;15.20;47.90;;;;;;5093829;28;20011;-64
2022/01/17 13:01:39;;;;;;;;;;;15.20;48.00;;;;;;5092960;28;19908;-63
2022/01/17 13:04:06;;;;;;;;;;;15.10;48.60;;;;;;5075649;28;19912;-64
2022/01/17 13:06:32;;;;;;;;;;;15.10;47.90;;;;;;5093995;28;19964;-64
2022/01/17 13:08:59;;;;;;;;;;;15.10;47.90;;;;;;5126022;27;20003;-63
2022/01/17 13:11:25;;;;;;;;;;;15.20;48.00;;;;;;5092657;28;19935;-64
2022/01/17 13:13:52;;;;;;;;;;;15.10;47.90;;;;;;5126856;27;19912;-63
2022/01/17 13:16:20;;;;;;;;;;;15.20;48.00;;;;;;5092481;28;19915;-64
2022/01/17 13:18:46;;;;;;;;;;;15.20;47.90;;;;;;5092184;28;19916;-64
2022/01/17 13:21:11;;;;;;;;;;;15.20;47.90;;;;;;5092301;28;19915;-64
2022/01/17 13:23:45;;;;;;;;;;;15.20;47.90;;;;;;5092846;28;20037;-63
2022/01/17 13:26:14;;;;;;;;;;;15.20;47.90;;;;;;5100177;28;20308;-64
2022/01/17 13:28:46;;;;;;;;;;;15.20;47.90;;;;;;5092909;28;19924;-64
2022/01/17 13:31:18;;;;;;;;;;;15.20;47.90;;;;;;5092205;28;20408;-64
2022/01/17 13:33:44;;;;;;;;;;;15.20;47.90;;;;;;5091939;28;20303;-64
2022/01/17 13:36:09;;;;;;;;;;;15.20;47.90;;;;;;5092064;28;19916;-63
2022/01/17 13:38:35;;;;;;;;;;;15.20;47.90;;;;;;5091643;28;19912;-64
2022/01/17 13:41:04;;;;;;;;;;;15.20;47.90;;;;;;5093371;28;19908;-63
2022/01/17 13:43:30;;;;;;;;;;;15.20;47.90;;;;;;5092130;28;19915;-63
2022/01/17 13:45:56;;;;;;;;;;;15.20;47.80;;;;;;5092016;28;19954;-64
2022/01/17 13:48:25;;;;;;;;;;;15.20;47.80;;;;;;5093238;28;19912;-64
2022/01/17 13:50:53;;;;;;;;;;;15.20;47.80;;;;;;5091886;28;19908;-63
2022/01/17 13:53:19;;;;;;;;;;;15.20;47.80;;;;;;5075026;28;19915;-63
2022/01/17 13:55:45;;;;;;;;;;;15.20;47.70;;;;;;5092786;28;19912;-63
2022/01/17 13:58:11;;;;;;;;;;;15.20;47.70;;;;;;5091715;28;19915;-64
2022/01/17 14:00:47;;;;;;;;;;;15.20;47.80;;;;;;5091252;28;19908;-64
2022/01/17 14:03:13;;;;;;;;;;;15.20;47.80;;;;;;5091637;28;20376;-64
2022/01/17 14:05:39;;;;;;;;;;;15.20;47.80;;;;;;5092886;28;19958;-64
2022/01/17 14:08:11;;;;;;;;;;;15.20;47.70;;;;;;5091525;28;20286;-64
2022/01/17 14:10:37;;;;;;;;;;;15.20;47.70;;;;;;5092374;28;19915;-64
2022/01/17 14:13:05;;;;;;;;;;;15.30;48.30;;;;;;5091310;28;20006;-64
2022/01/17 14:15:30;;;;;;;;;;;15.20;47.60;;;;;;5091462;28;19979;-65
2022/01/17 14:18:09;;;;;;;;;;;15.30;47.60;;;;;;5092425;28;19920;-64
2022/01/17 14:20:35;;;;;;;;;;;15.20;47.50;;;;;;5074281;28;19912;-64
2022/01/17 14:23:00;;;;;;;;;;;15.20;47.40;;;;;;5091368;28;19908;-64
2022/01/17 14:25:26;;;;;;;;;;;15.20;47.40;;;;;;5090917;28;19995;-64
2022/01/17 14:27:58;;;;;;;;;;;15.20;47.50;;;;;;5092448;28;19916;-64
2022/01/17 14:30:27;;;;;;;;;;;15.20;47.50;;;;;;5092377;28;20013;-64
2022/01/17 14:33:15;;;;;;;;;;;15.20;47.60;;;;;;5091326;28;19954;-64